Flight Track Log - Related Links

Times and Time Zones

All times are in EDT time to prevent confusion due to time zone crossing. See the UAL4274 flight status page for this flight to view local times or setup timezone preferences in your user account.

Time Position Orientation Groundspeed Altitude Reporting Facility
EDT Latitude Longitude Course Direction KTS MPH feet Rate Location/Type
Sun 10:28:49 AM 37.5500 -77.3333 305° West 181 208 2,200  Level Potomac TRACON
Sun 10:30:12 AM 37.6047 -77.4136 311° West 211 243 5,000 2,314 Climbing Washington Center
Sun 10:31:00 AM 37.7161 -77.5474 307° West  Level Estimated
Sun 10:31:09 AM 37.6472 -77.4908 305° West 240 276 7,600  Level Washington Center
Sun 10:32:00 AM 37.7579 -77.6518 297° West  Level FlightAware Approximate
Sun 10:32:10 AM 37.6897 -77.5678 305° West 266 306 10,100  Level Washington Center
Sun 10:33:00 AM 37.8285 -77.7275 310° West  Level Estimated
Sun 10:33:11 AM 37.7364 -77.6506 306° West 282 325 11,600  Level Washington Center
Sun 10:34:00 AM 37.8990 -77.8034 305° West  Level Estimated
Sun 10:34:09 AM 37.7892 -77.7414 306° West 299 344 13,000  Level Washington Center
Sun 10:35:10 AM 37.8478 -77.8375 308° West 329 379 13,000  Level Washington Center
Sun 10:36:11 AM 37.9469 -77.8828 340° North 342 394 13,000 492 Level Washington Center
Sun 10:37:12 AM 38.0381 -77.9197 342° North 349 402 14,000 1,169 Climbing Washington Center
Sun 10:38:09 AM 38.1375 -77.9544 345° North 365 420 15,300 1,311 Climbing Washington Center
Sun 10:39:11 AM 38.2389 -77.9869 346° North 372 428 16,600 1,279 Climbing Washington Center
Sun 10:40:11 AM 38.3406 -78.0244 344° North 372 428 17,900 1,140 Climbing Washington Center
Sun 10:41:12 AM 38.4397 -78.0594 345° North 372 428 18,900 1,160 Climbing Washington Center
Sun 10:42:10 AM 38.5414 -78.0947 345° North 372 428 20,200 1,322 Climbing Washington Center
Sun 10:43:10 AM 38.6428 -78.1328 344° North 372 428 21,500 1,300 Climbing Washington Center
Sun 10:44:10 AM 38.7442 -78.1681 345° North 372 428 22,800 1,289 Climbing Washington Center
Sun 10:45:11 AM 38.8456 -78.2036 345° North 377 434 24,100 1,279 Climbing Washington Center
Sun 10:46:12 AM 38.9639 -78.2214 353° North 377 434 25,400 1,289 Climbing Washington Center
Sun 10:47:12 AM 39.0700 -78.2306 356° North 377 434 26,700 814 Climbing Washington Center
Sun 10:48:10 AM 39.1825 -78.2400 356° North 387 445 27,000 151 Climbing Washington Center
Sun 10:49:11 AM 39.2989 -78.2522 355° North 397 457 27,000  Level Washington Center
Sun 10:50:11 AM 39.4214 -78.2647 355° North 420 483 27,000  Level Washington Center
Sun 10:51:12 AM 39.5442 -78.2772 356° North 437 503 27,000  Level Washington Center
Sun 10:52:39 AM 39.7208 -78.2975 355° North 460 529 27,000  Level Cleveland Center
Sun 10:53:41 AM 39.8603 -78.3222 352° North 463 533 27,000  Level Cleveland Center
Sun 10:54:43 AM 39.9500 -78.4342 316° Northwest 441 507 27,000  Level Cleveland Center
Sun 10:55:45 AM 40.0286 -78.5594 309° West 443 510 27,000  Level Cleveland Center
Sun 10:56:47 AM 40.1067 -78.6811 310° West 439 505 27,000  Level Cleveland Center
Sun 10:57:49 AM 40.2019 -78.8294 310° West 442 509 27,000  Level Cleveland Center
Sun 10:58:51 AM 40.2794 -78.9533 309° West 438 504 27,000  Level Cleveland Center
Sun 10:59:53 AM 40.3561 -79.0767 309° West 434 499 27,000  Level Cleveland Center
Sun 11:00:55 AM 40.4333 -79.1997 310° West 435 501 27,000  Level Cleveland Center
Sun 11:01:57 AM 40.5142 -79.3278 310° West 443 510 27,000  Level Cleveland Center
Sun 11:02:59 AM 40.5903 -79.4511 309° West 440 506 27,000  Level Cleveland Center
Sun 11:04:01 AM 40.6658 -79.5753 309° West 438 504 27,000 -242 Level Cleveland Center
Sun 11:05:03 AM 40.7569 -79.7231 309° West 438 504 26,500 -726 Descending Cleveland Center
Sun 11:06:05 AM 40.8294 -79.8425 309° West 428 493 25,500 -976 Descending Cleveland Center
Sun 11:07:06 AM 40.9014 -79.9606 309° West 419 482 24,500 -732 Descending Cleveland Center
Sun 11:08:08 AM 40.9728 -80.0786 309° West 415 478 24,000 -242 Descending Cleveland Center
Sun 11:09:10 AM 41.0442 -80.1953 309° West 413 475 24,000  Level Cleveland Center
Sun 11:10:12 AM 41.1144 -80.3122 309° West 409 471 24,000  Level Cleveland Center
Sun 11:11:14 AM 41.1983 -80.4503 309° West 408 470 24,000 -537 Level Cleveland Center
Sun 11:12:15 AM 41.2672 -80.5656 309° West 399 459 22,900 -1,854 Descending Cleveland Center
Sun 11:13:17 AM 41.3314 -80.6761 308° West 384 442 20,200 -2,516 Descending Cleveland Center
Sun 11:14:19 AM 41.3725 -80.7883 296° West 343 395 17,700 -2,571 Descending Cleveland Center
Sun 11:14:27 AM 41.3842 -80.8069 310° West 322 371 17,200 -3,857 Descending Cleveland Center
Sun 11:14:33 AM 41.3869 -80.8242 282° West 312 359 16,800 -2,556 Descending Cleveland Center
Sun 11:15:21 AM 41.4114 -80.8878 297° West 307 353 14,900 -2,852 Descending Cleveland Center
Sun 11:15:34 AM 41.4250 -80.9217 298° West 295 339 13,900 -3,049 Descending Cleveland Center
Sun 11:16:22 AM 41.4400 -80.9892 287° West 295 339 11,800 -3,049 Descending Cleveland Center
Sun 11:16:35 AM 41.4478 -81.0253 286° West 287 330 10,800 -1,742 Descending Cleveland Center
Sun 11:17:24 AM 41.4594 -81.0933 283° West 289 333 10,000 -900 Descending Cleveland Center
Sun 11:17:35 AM 41.4681 -81.1317 287° West 297 342 9,900  Descending Cleveland Center
Sun 11:18:26 AM 41.4847 -81.2258 283° West 309 356 10,000  Climbing Cleveland Center
Sun 11:18:36 AM 41.4894 -81.2464 287° West 318 366 9,900 -197 Descending Cleveland Center
Sun 11:19:27 AM 41.4972 -81.3325 277° West 287 330 9,800 -295 Descending Cleveland Center
Sun 11:19:37 AM 41.4972 -81.3481 270° West 262 302 9,600 -1,971 Descending Cleveland Center
Sun 11:20:37 AM 41.4931 -81.4453 267° West 249 287 7,500 -1,947 Descending Cleveland Center
Sun 11:21:31 AM 41.4908 -81.5206 268° West 253 291 5,900 -1,970 Descending Cleveland Center
Sun 11:21:44 AM 41.4922 -81.5483 274° West 256 295 5,300 -1,770 Descending Cleveland Center
Sun 11:22:32 AM 41.4892 -81.6144 266° West 254 292 4,100 -1,574 Descending Cleveland Center
Sun 11:22:45 AM 41.4903 -81.6403 273° West 251 289 3,700 -892 Descending Cleveland Center
Sun 11:23:46 AM 41.4867 -81.7261 267° West 228 262 3,000 -793 Descending Cleveland Center
Sun 11:24:46 AM 41.4569 -81.7744 231° Southwest 146 168 2,100 -811 Descending Cleveland Center
Sun 11:25:37 AM 41.4364 -81.8036 227° Southwest 151 174 1,500 -658 Descending Cleveland Center
Sun 11:25:59 AM 41.4300 -81.8175 238° Southwest 148 170 1,300 -677 Descending Cleveland Center
Sun 11:26:39 AM 41.4139 -81.8408 227° Southwest 136 157 800 -750 Descending Cleveland Center

Login

Don't have an account? Register now (free) for customized features, flight alerts, and more!